createdAt,value
2022-12-01T00:02:02.273Z,6.9
2022-12-01T00:36:30.329Z,6.9
2022-12-01T00:42:20.297Z,6.8
2022-12-01T00:48:12.039Z,6.8
2022-12-01T00:54:03.138Z,6.8
2022-12-01T00:59:55.022Z,6.8
2022-12-01T01:05:46.139Z,6.8
2022-12-01T01:11:37.637Z,6.7
2022-12-01T01:17:28.587Z,6.6
2022-12-01T01:23:20.105Z,6.7
2022-12-01T01:29:10.614Z,6.6
2022-12-01T01:35:02.745Z,6.6
2022-12-01T01:40:56.314Z,6.7
2022-12-01T01:46:49.711Z,6.7
2022-12-01T01:52:47.402Z,6.6
2022-12-01T01:58:39.769Z,6.5
2022-12-01T02:04:32.020Z,6.4
2022-12-01T02:10:23.681Z,6.5
2022-12-01T02:16:16.363Z,6.5
2022-12-01T02:22:11.989Z,6.4
2022-12-01T02:28:04.851Z,6.5
2022-12-01T02:34:04.499Z,6.4
2022-12-01T02:39:57.509Z,6.4
2022-12-01T02:45:49.902Z,6.5
2022-12-01T02:51:44.101Z,6.5
2022-12-01T02:57:50.047Z,6.5
2022-12-01T03:03:42.171Z,6.5
2022-12-01T03:09:38.120Z,6.6
2022-12-01T03:15:28.044Z,6.5
2022-12-01T03:21:20.303Z,6.6
2022-12-01T03:27:12.716Z,6.5
2022-12-01T03:33:04.535Z,6.4
2022-12-01T03:38:56.897Z,6.6
2022-12-01T03:44:48.752Z,6.6
2022-12-01T03:50:41.358Z,6.5
2022-12-01T03:56:33.162Z,6.5
2022-12-01T04:02:26.786Z,6.5
2022-12-01T04:08:18.416Z,6.5
2022-12-01T04:14:10.976Z,6.4
2022-12-01T04:20:02.411Z,6.4
2022-12-01T04:25:55.189Z,6.5
2022-12-01T04:31:46.773Z,6.5
2022-12-01T04:37:39.816Z,6.4
2022-12-01T04:43:31.078Z,6.6
2022-12-01T04:49:24.265Z,6.5
2022-12-01T04:55:15.767Z,6.4
2022-12-01T05:01:04.759Z,6.5
2022-12-01T05:06:57.247Z,6.5
2022-12-01T05:12:50.894Z,6.5
2022-12-01T05:18:40.333Z,6.7
2022-12-01T05:24:29.602Z,6.5
2022-12-01T05:30:24.328Z,6.4
2022-12-01T05:36:18.397Z,6.5
2022-12-01T05:42:10.036Z,6.5
2022-12-01T05:48:02.647Z,6.5
2022-12-01T05:53:56.118Z,6.4
2022-12-01T05:59:48.663Z,6.5
2022-12-01T06:05:40.876Z,6.5
2022-12-01T06:11:33.494Z,6.5
2022-12-01T06:17:37.065Z,6.4
2022-12-01T06:23:31.610Z,6.4
2022-12-01T06:29:23.535Z,6.4
2022-12-01T06:35:13.854Z,6.4
2022-12-01T06:41:06.040Z,6.4
2022-12-01T06:46:57.138Z,6.4
2022-12-01T06:53:39.568Z,6.4
2022-12-01T07:40:52.103Z,6.6
2022-12-01T07:47:33.317Z,6.5
2022-12-01T07:53:39.789Z,6.6
2022-12-01T08:00:00.002Z,6.6
2022-12-01T08:18:17.871Z,6.7
2022-12-01T08:24:22.518Z,6.6
2022-12-01T08:30:26.980Z,6.5
2022-12-01T08:36:37.286Z,6.6
2022-12-01T08:42:34.593Z,6.5
2022-12-01T08:54:48.724Z,6.7
2022-12-01T09:00:51.954Z,6.5
2022-12-01T09:07:11.821Z,6.7
2022-12-01T09:19:35.892Z,6.5
2022-12-01T09:38:50.937Z,6.6
2022-12-01T09:45:11.801Z,6.5
2022-12-01T10:11:10.757Z,6.6
2022-12-01T10:17:06.003Z,6.5
2022-12-01T10:23:04.028Z,6.6
2022-12-01T11:13:11.294Z,6.5
2022-12-01T11:19:44.549Z,6.5
2022-12-01T11:46:03.967Z,6.8
2022-12-01T11:52:51.691Z,6.8
2022-12-01T11:58:54.496Z,6.8
2022-12-01T12:04:47.354Z,6.9
2022-12-01T12:10:43.711Z,6.9
2022-12-01T12:16:35.892Z,6.8
2022-12-01T12:22:28.398Z,6.8
2022-12-01T12:35:16.026Z,6.9
2022-12-01T12:41:48.936Z,6.8
2022-12-01T13:00:56.581Z,7
2022-12-01T13:13:05.117Z,6.8
2022-12-01T13:19:09.397Z,7
2022-12-01T13:25:03.784Z,6.9
2022-12-01T13:31:12.662Z,6.8
2022-12-01T14:04:03.787Z,6.6
2022-12-01T14:23:09.300Z,6.5
2022-12-01T14:36:09.440Z,6.5
2022-12-01T15:09:34.318Z,6.4
2022-12-01T21:37:11.500Z,5.3
2022-12-01T21:43:03.337Z,5.3
2022-12-01T21:48:54.872Z,5.3
2022-12-01T21:54:47.327Z,5.2
2022-12-01T22:00:43.681Z,5.2
2022-12-01T22:06:35.724Z,5.2
2022-12-01T22:12:28.464Z,5.2
2022-12-01T22:18:19.603Z,5.1
2022-12-01T22:24:16.521Z,5.2
2022-12-01T22:30:07.065Z,5.2
2022-12-01T22:35:57.177Z,5
2022-12-01T22:41:49.252Z,5
2022-12-01T22:47:45.732Z,5.1
2022-12-01T22:53:35.069Z,5
2022-12-01T22:59:24.857Z,4.8
2022-12-01T23:05:16.523Z,5
2022-12-01T23:11:06.366Z,4.9
2022-12-01T23:16:57.987Z,4.7
2022-12-01T23:22:48.782Z,4.8
2022-12-01T23:28:41.571Z,4.8
2022-12-01T23:34:32.392Z,4.7
2022-12-01T23:40:26.966Z,4.6
2022-12-01T23:46:25.813Z,4.7
2022-12-01T23:52:19.889Z,4.7
2022-12-01T23:58:12.091Z,4.6
